Time;durP1;ratioP1;P1;durP2;ratioP2;P2;SDS_P1;SDS_P2;PMS_P1;PMS_P2;Temp;Humidity;BMP_temperature;BMP_pressure;BME280_temperature;BME280_humidity;BME280_pressure;Samples;Min_cycle;Max_cycle;Signal;HPM_P1;HPM_P2
2022/04/20 00:01:22;;;;;;;5.55;2.08;;;;;;;9.65;42.99;100125.00;21021474;28;20049;-69
2022/04/20 00:11:24;;;;;;;5.38;2.00;;;;;;;9.57;42.73;100126.00;20990823;28;20043;-67
2022/04/20 00:21:26;;;;;;;5.13;2.15;;;;;;;9.42;43.15;100127.97;21014665;28;20074;-68
2022/04/20 00:31:28;;;;;;;5.82;2.30;;;;;;;9.34;43.53;100115.91;21018711;28;20145;-70
2022/04/20 00:41:30;;;;;;;6.35;2.70;;;;;;;9.10;44.03;100117.13;21006733;28;20082;-69
2022/04/20 00:51:32;;;;;;;7.70;2.45;;;;;;;8.94;44.47;100114.72;21032184;28;20098;-67
2022/04/20 01:01:34;;;;;;;6.10;2.17;;;;;;;8.84;45.12;100118.34;21028024;28;20048;-66
2022/04/20 01:11:35;;;;;;;5.63;2.15;;;;;;;8.73;45.73;100120.25;21026389;28;20044;-67
2022/04/20 01:21:37;;;;;;;6.88;2.60;;;;;;;8.51;46.66;100116.16;21034565;28;20458;-69
2022/04/20 01:31:38;;;;;;;6.20;2.50;;;;;;;8.33;47.46;100122.41;21018282;28;20041;-68
2022/04/20 01:41:40;;;;;;;6.80;2.10;;;;;;;8.20;48.21;100126.91;21027601;28;20055;-68
2022/04/20 01:51:47;;;;;;;4.07;2.10;;;;;;;8.01;49.30;100126.25;21026079;28;20046;-67
2022/04/20 02:12:08;;;;;;;8.20;2.50;;;;;;;7.80;50.92;100122.06;21029104;28;20064;-64
2022/04/20 02:22:10;;;;;;;6.97;2.80;;;;;;;7.58;52.27;100121.41;21022700;28;20048;-64
2022/04/20 02:32:11;;;;;;;5.85;2.42;;;;;;;7.56;52.83;100127.50;21018806;28;20036;-65
2022/04/20 02:42:13;;;;;;;5.78;2.65;;;;;;;7.42;54.42;100130.19;21026678;28;20074;-64
2022/04/20 02:52:14;;;;;;;6.32;3.53;;;;;;;7.39;54.37;100125.03;21015357;28;20414;-65
2022/04/20 03:02:16;;;;;;;9.82;3.00;;;;;;;7.17;56.25;100137.31;21019376;28;20048;-68
2022/04/20 03:12:18;;;;;;;8.13;3.30;;;;;;;7.14;56.41;100130.41;21021527;28;20044;-68
2022/04/20 03:22:21;;;;;;;8.02;3.70;;;;;;;6.93;58.14;100136.56;21015920;28;20550;-67
2022/04/20 03:32:23;;;;;;;8.32;2.92;;;;;;;6.92;57.66;100155.66;21021031;28;20037;-69
2022/04/20 03:42:24;;;;;;;7.40;3.25;;;;;;;6.72;59.21;100154.91;21014249;28;20125;-67
2022/04/20 03:52:25;;;;;;;7.93;3.58;;;;;;;6.64;59.81;100170.53;21012939;28;20044;-69
2022/04/20 04:02:27;;;;;;;7.10;3.47;;;;;;;6.36;61.65;100163.69;21019805;28;21673;-68
2022/04/20 04:12:29;;;;;;;10.30;3.60;;;;;;;6.21;62.50;100167.19;21010376;28;20912;-67
2022/04/20 04:22:31;;;;;;;9.57;3.67;;;;;;;6.20;62.99;100173.25;21014027;28;20064;-69
2022/04/20 04:32:33;;;;;;;11.20;3.70;;;;;;;6.16;62.76;100172.38;21013110;28;20098;-68
2022/04/20 04:42:34;;;;;;;7.80;3.63;;;;;;;6.09;63.49;100169.81;21012133;28;20052;-67
2022/04/20 04:52:36;;;;;;;8.00;3.33;;;;;;;6.04;64.20;100174.16;21016244;28;20048;-68
2022/04/20 05:02:37;;;;;;;7.70;3.72;;;;;;;5.99;65.16;100175.84;21008238;28;20239;-67
2022/04/20 05:12:39;;;;;;;8.88;3.63;;;;;;;6.09;64.18;100195.81;21014422;28;20162;-68
2022/04/20 05:22:40;;;;;;;8.05;3.83;;;;;;;6.09;66.79;100198.41;21013830;28;20040;-67
2022/04/20 05:32:42;;;;;;;7.90;3.50;;;;;;;6.08;67.21;100199.25;21011401;28;20550;-67
2022/04/20 05:42:43;;;;;;;6.28;3.35;;;;;;;6.33;65.56;100205.31;21030112;28;20098;-68
2022/04/20 05:52:45;;;;;;;9.63;4.15;;;;;;;6.46;64.17;100196.59;21023284;28;20450;-67
2022/04/20 06:02:46;;;;;;;8.63;3.90;;;;;;;6.60;63.86;100217.38;21022777;28;20045;-68
2022/04/20 06:12:48;;;;;;;8.60;4.35;;;;;;;6.81;62.40;100206.91;21028453;28;20059;-67
2022/04/20 06:22:49;;;;;;;6.80;3.83;;;;;;;7.06;62.58;100212.88;21016992;28;20059;-67
2022/04/20 06:32:51;;;;;;;7.03;3.72;;;;;;;7.16;60.08;100205.88;21023765;28;20059;-67
2022/04/20 06:42:52;;;;;;;6.85;3.55;;;;;;;7.58;60.00;100206.53;21021158;28;20498;-68
2022/04/20 07:03:14;;;;;;;7.47;4.07;;;;;;;8.16;58.55;100193.03;21021234;28;20049;-67
2022/04/20 07:13:16;;;;;;;9.60;4.90;;;;;;;8.55;57.48;100198.75;21015686;28;20480;-66
2022/04/20 07:23:18;;;;;;;9.27;3.95;;;;;;;8.79;56.49;100188.03;21010237;28;20048;-68
2022/04/20 07:33:19;;;;;;;9.23;3.67;;;;;;;9.10;54.44;100185.91;21015535;28;20047;-67
2022/04/20 07:43:21;;;;;;;6.65;3.17;;;;;;;9.41;54.30;100186.34;21010709;28;20542;-67
2022/04/20 07:53:23;;;;;;;5.10;2.88;;;;;;;9.82;51.02;100192.72;21020420;28;20043;-68
2022/04/20 08:03:25;;;;;;;7.53;3.85;;;;;;;9.97;48.73;100199.44;21013103;28;20126;-67
2022/04/20 08:14:28;;;;;;;8.70;3.53;;;;;;;10.24;46.62;100190.28;21008032;28;20047;-69
2022/04/20 08:23:57;;;;;;;6.25;2.95;;;;;;;10.49;47.50;100185.44;20997645;28;20079;-68
2022/04/20 08:34:05;;;;;;;5.05;2.67;;;;;;;10.59;47.26;100183.53;21009906;28;20044;-68
2022/04/20 08:44:11;;;;;;;8.77;3.17;;;;;;;10.85;44.50;100189.13;21008122;28;20101;-68
2022/04/20 08:54:12;;;;;;;6.65;3.42;;;;;;;11.04;43.65;100187.84;21016616;28;20032;-69
2022/04/20 09:04:14;;;;;;;8.30;3.30;;;;;;;11.55;44.11;100182.34;21004781;28;20648;-68
2022/04/20 09:14:16;;;;;;;8.35;3.13;;;;;;;11.63;38.87;100179.53;21026251;28;20048;-71
2022/04/20 09:24:18;;;;;;;6.75;4.13;;;;;;;12.02;38.79;100182.97;21026111;28;20085;-68
2022/04/20 09:34:25;;;;;;;9.75;3.78;;;;;;;12.03;39.27;100173.38;21019890;28;20085;-69
2022/04/20 09:44:29;;;;;;;7.07;2.70;;;;;;;12.39;38.33;100161.03;20997808;28;20052;-70
2022/04/20 09:54:31;;;;;;;6.80;3.07;;;;;;;12.42;36.63;100162.72;20997306;28;20416;-68
2022/04/20 10:04:34;;;;;;;6.65;2.70;;;;;;;12.46;33.42;100146.84;20996113;28;20052;-68
2022/04/20 10:25:00;;;;;;;7.45;3.58;;;;;;;13.12;37.85;100133.56;20998549;28;20053;-68
2022/04/20 10:35:03;;;;;;;8.00;3.43;;;;;;;13.39;38.16;100119.59;20985057;28;20044;-69
2022/04/20 10:45:10;;;;;;;6.13;3.45;;;;;;;13.33;34.58;100093.50;20990313;28;20041;-68
2022/04/20 10:55:12;;;;;;;8.25;3.50;;;;;;;13.70;36.27;100074.75;20999636;28;20511;-68
2022/04/20 11:05:15;;;;;;;9.57;3.45;;;;;;;13.39;30.87;100061.75;20986058;28;20048;-68
2022/04/20 11:18:38;;;;;;;6.03;2.90;;;;;;;13.77;32.47;100067.50;20980102;28;20040;-69
2022/04/20 11:26:10;;;;;;;7.07;2.90;;;;;;;14.17;33.37;100045.03;20986955;28;20052;-69
2022/04/20 11:36:15;;;;;;;5.30;2.55;;;;;;;14.39;32.97;100040.72;20979569;28;20429;-70
2022/04/20 11:46:17;;;;;;;4.35;2.13;;;;;;;14.31;32.67;100032.22;20978936;28;20044;-70
2022/04/20 11:56:36;;;;;;;5.47;2.63;;;;;;;14.50;31.02;100025.38;20986845;28;20078;-71
2022/04/20 12:06:44;;;;;;;8.95;2.65;;;;;;;14.41;31.81;100017.78;20980209;28;20048;-70
2022/04/20 12:16:47;;;;;;;6.10;3.10;;;;;;;14.39;32.71;100014.38;20990497;28;20056;-72
2022/04/20 12:26:51;;;;;;;5.35;2.88;;;;;;;14.45;30.83;100011.50;20983997;28;20040;-69
2022/04/20 12:36:53;;;;;;;5.85;2.65;;;;;;;14.73;31.64;99999.94;20980077;28;20052;-69
2022/04/20 12:46:55;;;;;;;6.28;3.00;;;;;;;14.99;29.76;99990.97;20991550;28;20049;-69
2022/04/20 13:07:16;;;;;;;7.18;2.90;;;;;;;14.75;31.50;99974.38;20972560;28;20036;-71
2022/04/20 13:17:21;;;;;;;5.75;3.03;;;;;;;14.93;31.11;99962.22;20987079;28;20055;-71
2022/04/20 13:37:42;;;;;;;7.13;2.97;;;;;;;15.21;31.01;99959.31;20986581;28;20048;-68
2022/04/20 13:47:44;;;;;;;6.40;3.13;;;;;;;15.08;29.46;99951.06;20983151;28;20048;-70
2022/04/20 13:57:46;;;;;;;5.72;2.70;;;;;;;15.17;29.15;99950.69;20985531;28;20543;-69
2022/04/20 14:07:48;;;;;;;5.05;2.92;;;;;;;15.21;28.88;99948.78;20998730;28;20074;-69
2022/04/20 14:17:49;;;;;;;4.15;2.50;;;;;;;15.22;29.18;99943.44;20995502;28;20075;-68
2022/04/20 14:38:11;;;;;;;5.47;3.20;;;;;;;15.53;28.63;99932.44;20994267;28;20051;-66
2022/04/20 14:48:13;;;;;;;7.68;3.00;;;;;;;15.35;29.02;99927.94;20986944;28;20040;-66
2022/04/20 14:58:15;;;;;;;5.95;3.00;;;;;;;15.59;28.28;99937.44;20993722;28;20044;-68
2022/04/20 15:08:16;;;;;;;6.03;2.90;;;;;;;15.63;28.26;99933.78;20990923;28;20064;-69
2022/04/20 15:18:18;;;;;;;5.22;3.33;;;;;;;15.56;28.23;99927.00;20980361;28;20040;-67
2022/04/20 15:28:19;;;;;;;8.63;3.13;;;;;;;15.64;28.79;99930.22;20995654;28;20575;-67
2022/04/20 15:38:21;;;;;;;9.00;3.03;;;;;;;15.44;29.17;99917.00;20985071;28;20469;-67
2022/04/20 15:48:23;;;;;;;7.50;2.90;;;;;;;15.62;30.03;99916.19;20982119;28;20052;-68
2022/04/20 16:08:44;;;;;;;8.90;3.42;;;;;;;15.50;29.74;99900.91;20981845;28;20044;-69
2022/04/20 16:18:46;;;;;;;11.07;4.35;;;;;;;15.70;29.23;99902.69;20981172;28;20051;-71
2022/04/20 16:28:48;;;;;;;9.93;3.60;;;;;;;15.72;28.03;99894.72;20984872;28;20489;-69
2022/04/20 16:38:49;;;;;;;9.77;3.30;;;;;;;15.70;27.54;99901.81;20978025;28;20178;-68
2022/04/20 16:48:51;;;;;;;6.97;3.72;;;;;;;15.84;27.04;99894.16;20988425;28;20126;-69
2022/04/20 16:58:52;;;;;;;5.30;3.00;;;;;;;15.61;28.14;99887.22;21027881;22;20051;-86
2022/04/20 17:08:54;;;;;;;6.38;3.60;;;;;;;15.47;29.05;99885.19;21101322;28;20463;-83
2022/04/20 17:18:58;;;;;;;10.05;3.88;;;;;;;15.43;29.10;99880.13;21069421;28;20052;-83
2022/04/20 17:29:09;;;;;;;8.48;4.13;;;;;;;15.08;28.90;99888.63;21093319;28;20081;-81
2022/04/20 17:39:13;;;;;;;7.47;3.67;;;;;;;14.47;30.56;99891.13;21187973;28;20048;-82
2022/04/20 17:49:15;;;;;;;6.60;3.95;;;;;;;14.40;30.94;99899.34;21115030;28;20040;-82
2022/04/20 17:59:17;;;;;;;8.45;3.88;;;;;;;14.03;32.05;99906.84;21107334;28;20629;-82
2022/04/20 18:09:20;;;;;;;11.02;4.15;;;;;;;13.81;32.29;99909.44;21123204;28;20100;-83
2022/04/20 18:19:22;;;;;;;10.32;4.05;;;;;;;13.59;31.72;99906.72;21067551;28;20039;-82
2022/04/20 18:29:23;;;;;;;7.90;4.38;;;;;;;13.31;32.70;99921.75;21064118;28;20100;-84
2022/04/20 18:39:25;;;;;;;8.77;5.00;;;;;;;13.04;34.02;99919.16;21090369;28;20036;-84
2022/04/20 18:49:26;;;;;;;9.48;4.35;;;;;;;12.83;33.52;99932.97;21072841;28;20097;-84
2022/04/20 18:59:30;;;;;;;9.90;4.35;;;;;;;12.56;34.36;99935.59;21094820;28;20054;-82
2022/04/20 19:09:35;;;;;;;6.63;4.00;;;;;;;12.31;35.16;99934.59;21089122;28;20048;-83
2022/04/20 19:19:37;;;;;;;7.18;3.90;;;;;;;12.14;35.60;99934.28;21081013;28;20481;-84
2022/04/20 19:29:39;;;;;;;6.72;3.47;;;;;;;11.84;36.90;99929.00;21085400;28;20040;-83
2022/04/20 19:39:41;;;;;;;7.45;2.95;;;;;;;11.50;38.97;99931.69;21092498;28;20093;-83
2022/04/20 19:49:43;;;;;;;5.95;3.10;;;;;;;11.24;38.98;99929.72;21102782;28;20394;-83
2022/04/20 19:59:45;;;;;;;10.55;4.10;;;;;;;11.11;39.34;99920.44;21114086;28;20050;-84
2022/04/20 20:09:51;;;;;;;11.02;5.82;;;;;;;11.08;39.37;99902.22;21107867;28;20044;-82
2022/04/20 20:19:54;;;;;;;8.55;4.35;;;;;;;11.16;39.14;99910.72;21084574;28;20052;-83
2022/04/20 20:30:04;;;;;;;8.00;4.80;;;;;;;11.21;38.16;99911.44;21092538;28;20349;-83
2022/04/20 20:40:07;;;;;;;8.25;4.10;;;;;;;11.01;39.03;99918.06;21080472;28;20566;-83
2022/04/20 21:00:31;;;;;;;9.07;3.80;;;;;;;11.25;38.75;99932.28;21130008;28;20087;-82
2022/04/20 21:10:33;;;;;;;9.18;4.85;;;;;;;11.11;41.29;99926.53;21115821;28;20060;-83
2022/04/20 21:20:34;;;;;;;10.57;5.10;;;;;;;10.74;43.40;99937.09;21116198;28;20040;-83
2022/04/20 21:30:36;;;;;;;7.35;3.97;;;;;;;10.65;44.59;99937.31;21099917;28;20393;-83
2022/04/20 21:40:56;;;;;;;8.88;3.92;;;;;;;10.42;45.95;99938.69;21104713;28;20131;-83
2022/04/20 21:50:58;;;;;;;11.75;4.22;;;;;;;10.26;47.70;99943.41;21124894;28;20147;-83
2022/04/20 22:01:05;;;;;;;8.90;4.00;;;;;;;10.09;49.66;99944.63;21092197;28;20043;-83
2022/04/20 22:21:27;;;;;;;6.28;3.08;;;;;;;9.71;54.19;99948.88;21123924;28;20080;-83
2022/04/20 22:31:29;;;;;;;8.88;3.45;;;;;;;9.67;54.82;99958.50;21118822;28;20056;-83
2022/04/20 22:41:35;;;;;;;6.63;3.30;;;;;;;9.50;56.20;99958.84;21101135;28;20036;-83
2022/04/20 22:51:38;;;;;;;6.65;3.30;;;;;;;9.33;57.49;99962.66;21095934;28;20044;-84
2022/04/20 23:01:39;;;;;;;8.35;4.40;;;;;;;9.08;59.79;99959.59;21098127;28;20048;-85
2022/04/20 23:11:41;;;;;;;9.68;4.50;;;;;;;8.98;59.68;99962.34;21101063;28;20043;-83
2022/04/20 23:21:42;;;;;;;7.25;3.65;;;;;;;8.97;60.45;99960.66;21108229;28;20069;-83
2022/04/20 23:31:45;;;;;;;7.55;3.25;;;;;;;8.83;61.58;99961.75;21082594;28;20047;-82
2022/04/20 23:41:46;;;;;;;8.20;3.97;;;;;;;8.65;63.68;99947.22;21101242;28;20051;-83
2022/04/20 23:51:48;;;;;;;6.03;3.65;;;;;;;8.53;65.40;99947.41;21068195;28;20052;-83
